San Pablo, Colorado
Current Conditions -  °F | °C
As of 1:32 PM on Wednesday 26 Nov 2014 (Local Time) from KVTP Reporting Station
Clear Clear  
Wind Chill: 32°   Ceiling: Unl
Heat Index: 39°   Visibility: 10mi
Dew Point: 21°   Wind: 12mph
Humidity: 49%   Direction: 220°SW
Pressure: 30.3"   Gusts: 20mph
Location:  37.15°N, 105.4°W
Report Text: KVTP 262032Z AUTO 22010G17KT 120V270 10SM CLR 04/M06 A3030 RMK AO2 P0002
Loading
Personal Weather Stations






























Interactive Weather Map New forecast layout! Learn more

10-Day Weather Forecast

Advertisements
Track Severe Weather on mobile